Time;durP1;ratioP1;P1;durP2;ratioP2;P2;SDS_P1;SDS_P2;PMS_P1;PMS_P2;Temp;Humidity;BMP_temperature;BMP_pressure;BME280_temperature;BME280_humidity;BME280_pressure;Samples;Min_cycle;Max_cycle;Signal;HPM_P1;HPM_P2
2022/08/22 00:01:01;;;;;;;;;;;;;;;16.49;100.00;101701.16;5031341;28;19944;-80
2022/08/22 00:03:45;;;;;;;;;;;;;;;16.51;100.00;101700.13;5021890;28;20391;-79
2022/08/22 00:06:21;;;;;;;;;;;;;;;16.52;100.00;101704.50;5019526;28;20044;-79
2022/08/22 00:08:56;;;;;;;;;;;;;;;16.54;100.00;101701.75;4976037;28;19921;-80
2022/08/22 00:11:24;;;;;;;;;;;;;;;16.54;100.00;101701.75;5008405;28;20043;-80
2022/08/22 00:13:55;;;;;;;;;;;;;;;16.51;100.00;101696.59;5023687;28;19928;-80
2022/08/22 00:16:44;;;;;;;;;;;;;;;16.50;100.00;101702.91;5005018;28;19925;-80
2022/08/22 00:19:15;;;;;;;;;;;;;;;16.47;100.00;101703.06;4984763;28;19992;-80
2022/08/22 00:21:43;;;;;;;;;;;;;;;16.47;100.00;101705.72;5024413;28;19963;-80
2022/08/22 00:24:12;;;;;;;;;;;;;;;16.46;100.00;101709.34;5021424;28;19988;-80
2022/08/22 00:26:44;;;;;;;;;;;;;;;16.43;100.00;101705.03;5023040;28;19932;-80
2022/08/22 00:29:14;;;;;;;;;;;;;;;16.41;100.00;101705.13;5022247;28;20654;-80
2022/08/22 00:31:48;;;;;;;;;;;;;;;16.39;100.00;101706.16;5004750;28;19921;-79
2022/08/22 00:34:43;;;;;;;;;;;;;;;16.36;100.00;101706.34;5004729;28;19972;-79
2022/08/22 00:37:13;;;;;;;;;;;;;;;16.31;100.00;101711.94;5004526;28;19929;-80
2022/08/22 00:39:55;;;;;;;;;;;;;;;16.27;100.00;101707.72;5019533;28;19924;-79
2022/08/22 00:42:26;;;;;;;;;;;;;;;16.24;100.00;101715.91;5022453;28;20007;-79
2022/08/22 00:45:14;;;;;;;;;;;;;;;16.20;100.00;101711.69;5007795;28;20445;-79
2022/08/22 00:47:50;;;;;;;;;;;;;;;16.17;100.00;101717.22;5019982;28;19921;-79
2022/08/22 00:50:28;;;;;;;;;;;;;;;16.15;100.00;101717.28;5025138;28;19979;-79
2022/08/22 00:53:10;;;;;;;;;;;;;;;16.12;100.00;101718.31;5020654;28;19968;-79
2022/08/22 00:55:55;;;;;;;;;;;;;;;16.08;100.00;101724.75;5003306;28;19921;-79
2022/08/22 00:58:23;;;;;;;;;;;;;;;16.04;100.00;101725.00;5023044;28;19925;-79
2022/08/22 01:00:52;;;;;;;;;;;;;;;16.00;100.00;101730.53;5023204;28;20599;-79
2022/08/22 01:03:21;;;;;;;;;;;;;;;15.98;100.00;101727.09;4984068;28;19925;-80
2022/08/22 01:06:07;;;;;;;;;;;;;;;15.96;100.00;101726.28;5023885;28;19924;-80
2022/08/22 01:08:40;;;;;;;;;;;;;;;15.93;100.00;101728.28;5022449;28;19932;-80
2022/08/22 01:11:24;;;;;;;;;;;;;;;15.89;100.00;101727.53;5004426;28;19971;-80
2022/08/22 01:13:52;;;;;;;;;;;;;;;15.87;100.00;101730.28;5022602;28;19972;-78
2022/08/22 01:16:20;;;;;;;;;;;;;;;15.85;100.00;101729.53;5023708;28;19917;-78
2022/08/22 01:19:03;;;;;;;;;;;;;;;15.81;100.00;101736.00;5021666;28;19921;-80
2022/08/22 01:21:47;;;;;;;;;;;;;;;15.78;100.00;101729.91;5024456;28;19925;-79
2022/08/22 01:24:19;;;;;;;;;;;;;;;15.74;100.00;101734.56;5022878;28;19936;-79
2022/08/22 01:26:47;;;;;;;;;;;;;;;15.70;100.00;101733.88;5022412;28;20467;-79
2022/08/22 01:29:18;;;;;;;;;;;;;;;15.65;100.00;101732.38;5022613;28;19925;-79
2022/08/22 01:32:02;;;;;;;;;;;;;;;15.64;100.00;101736.00;5007776;28;20503;-79
2022/08/22 01:34:35;;;;;;;;;;;;;;;15.61;100.00;101739.69;5021804;28;19925;-79
2022/08/22 01:37:06;;;;;;;;;;;;;;;15.57;100.00;101739.00;5007440;28;19975;-79
2022/08/22 01:39:31;;;;;;;;;;;;;;;15.52;100.00;101746.38;5024204;28;19921;-79
2022/08/22 01:42:06;;;;;;;;;;;;;;;15.50;100.00;101742.94;5021829;28;20398;-79
2022/08/22 01:44:37;;;;;;;;;;;;;;;15.49;100.00;101746.56;5021423;28;20465;-79
2022/08/22 01:47:09;;;;;;;;;;;;;;;15.44;100.00;101752.13;5019537;28;19921;-80
2022/08/22 01:49:43;;;;;;;;;;;;;;;15.40;100.00;101747.88;5003190;28;19925;-79
2022/08/22 01:52:10;;;;;;;;;;;;;;;15.38;100.00;101751.56;4991055;28;19925;-79
2022/08/22 01:54:41;;;;;;;;;;;;;;;15.34;100.00;101754.41;5006925;28;19936;-79
2022/08/22 01:57:07;;;;;;;;;;;;;;;15.33;100.00;101751.81;4982343;28;19928;-79
2022/08/22 01:59:40;;;;;;;;;;;;;;;15.30;100.00;101749.28;4999067;28;20632;-80
2022/08/22 02:02:38;;;;;;;;;;;;;;;15.27;100.00;101747.66;5019646;28;19995;-79
2022/08/22 02:05:04;;;;;;;;;;;;;;;15.24;100.00;101746.97;4990891;28;20273;-79
2022/08/22 02:07:35;;;;;;;;;;;;;;;15.21;100.00;101731.97;5024427;28;19974;-79
2022/08/22 02:10:10;;;;;;;;;;;;;;;15.19;100.00;101733.81;5022912;28;19921;-80
2022/08/22 02:12:35;;;;;;;;;;;;;;;15.15;100.00;101732.28;5005454;28;19921;-79
2022/08/22 02:15:13;;;;;;;;;;;;;;;15.12;100.00;101737.75;5021766;28;19956;-79
2022/08/22 02:17:50;;;;;;;;;;;;;;;15.12;100.00;101741.28;5020068;28;19925;-79
2022/08/22 02:20:34;;;;;;;;;;;;;;;15.14;100.00;101739.41;5007574;28;19948;-80
2022/08/22 02:23:03;;;;;;;;;;;;;;;15.15;100.00;101742.94;5004911;28;19929;-79
2022/08/22 02:25:47;;;;;;;;;;;;;;;15.10;100.00;101731.63;5002403;28;19929;-80
2022/08/22 02:28:14;;;;;;;;;;;;;;;15.05;100.00;101732.72;5017567;28;19926;-79
2022/08/22 02:30:46;;;;;;;;;;;;;;;15.03;100.00;101729.28;5002140;28;20350;-79
2022/08/22 02:33:20;;;;;;;;;;;;;;;15.03;100.00;101734.63;5019588;28;19932;-79
2022/08/22 02:35:48;;;;;;;;;;;;;;;15.03;100.00;101731.94;5006318;28;19925;-79
2022/08/22 02:38:20;;;;;;;;;;;;;;;14.99;100.00;101733.03;5003239;28;19925;-77
2022/08/22 02:41:05;;;;;;;;;;;;;;;14.94;100.00;101719.09;5002337;28;20358;-78
2022/08/22 02:43:49;;;;;;;;;;;;;;;14.89;100.00;101723.78;5020284;28;19927;-78
2022/08/22 02:46:15;;;;;;;;;;;;;;;14.85;100.00;101719.53;5021193;28;19920;-77
2022/08/22 02:48:59;;;;;;;;;;;;;;;14.84;100.00;101718.69;5020476;28;19932;-77
2022/08/22 02:51:31;;;;;;;;;;;;;;;14.86;100.00;101715.94;4998324;28;20764;-77
2022/08/22 02:54:01;;;;;;;;;;;;;;;14.86;100.00;101722.13;5017121;28;19936;-77
2022/08/22 02:56:26;;;;;;;;;;;;;;;14.83;100.00;101714.28;5001633;28;19927;-77
2022/08/22 02:58:57;;;;;;;;;;;;;;;14.80;100.00;101715.31;4997361;28;19921;-78
2022/08/22 03:01:22;;;;;;;;;;;;;;;14.77;100.00;101728.78;5019101;28;19925;-78
2022/08/22 03:03:48;;;;;;;;;;;;;;;14.75;100.00;101716.44;5016345;28;20333;-78
2022/08/22 03:06:31;;;;;;;;;;;;;;;14.70;100.00;101716.66;5019644;28;20545;-79
2022/08/22 03:09:19;;;;;;;;;;;;;;;14.68;100.00;101723.88;5020315;28;20002;-78
2022/08/22 03:11:46;;;;;;;;;;;;;;;14.65;100.00;101719.56;5011602;28;19929;-79
2022/08/22 03:14:13;;;;;;;;;;;;;;;14.63;100.00;101717.91;5001684;28;19932;-78
2022/08/22 03:16:49;;;;;;;;;;;;;;;14.60;100.00;101715.41;5001463;28;19922;-79
2022/08/22 03:19:16;;;;;;;;;;;;;;;14.57;100.00;101718.19;5020622;28;20299;-80
2022/08/22 03:21:48;;;;;;;;;;;;;;;14.55;100.00;101710.28;5003241;28;19932;-78
2022/08/22 03:24:21;;;;;;;;;;;;;;;14.52;100.00;101707.75;5019017;28;19925;-79
2022/08/22 03:26:50;;;;;;;;;;;;;;;14.49;100.00;101706.09;5020229;28;19968;-79
2022/08/22 03:29:35;;;;;;;;;;;;;;;14.47;100.00;101707.09;5023219;28;19921;-79
2022/08/22 03:32:04;;;;;;;;;;;;;;;14.44;100.00;101700.13;5019273;28;19941;-80
2022/08/22 03:34:29;;;;;;;;;;;;;;;14.43;100.00;101706.41;5021278;28;19932;-79
2022/08/22 03:36:57;;;;;;;;;;;;;;;14.40;100.00;101703.91;5018251;28;19924;-79
2022/08/22 03:39:37;;;;;;;;;;;;;;;14.39;100.00;101704.84;5021267;28;20399;-79
2022/08/22 03:42:14;;;;;;;;;;;;;;;14.37;100.00;101704.03;5019495;28;19991;-78
2022/08/22 03:44:40;;;;;;;;;;;;;;;14.36;100.00;101696.97;5016853;28;20027;-79
2022/08/22 03:47:08;;;;;;;;;;;;;;;14.34;100.00;101693.53;5016237;28;20471;-79
2022/08/22 03:49:42;;;;;;;;;;;;;;;14.34;100.00;101690.88;5019991;28;19948;-79
2022/08/22 03:52:33;;;;;;;;;;;;;;;14.33;100.00;101686.47;5001044;28;19925;-79
2022/08/22 03:55:17;;;;;;;;;;;;;;;14.30;100.00;101692.81;5015839;28;19933;-80
2022/08/22 03:58:01;;;;;;;;;;;;;;;14.28;100.00;101684.03;5019554;28;19932;-79
2022/08/22 04:00:35;;;;;;;;;;;;;;;14.26;100.00;101691.22;5017351;28;20851;-79
2022/08/22 04:03:07;;;;;;;;;;;;;;;14.25;100.00;101694.81;5020681;28;19935;-79
2022/08/22 04:05:51;;;;;;;;;;;;;;;14.25;100.00;101701.03;5039726;28;19928;-79
2022/08/22 04:08:34;;;;;;;;;;;;;;;14.34;100.00;101698.84;5039170;28;19931;-79
2022/08/22 04:11:26;;;;;;;;;;;;;;;14.41;100.00;101697.63;5020151;28;19924;-79
2022/08/22 04:14:10;;;;;;;;;;;;;;;14.46;100.00;101703.59;5015160;28;19921;-78
2022/08/22 04:16:47;;;;;;;;;;;;;;;14.45;100.00;101701.88;5038896;28;20101;-78
2022/08/22 04:19:24;;;;;;;;;;;;;;;14.45;100.00;101701.00;5039846;28;20467;-78
2022/08/22 04:21:59;;;;;;;;;;;;;;;14.46;100.00;101702.72;5020978;28;19925;-78
2022/08/22 04:24:47;;;;;;;;;;;;;;;14.48;100.00;101703.50;5039113;28;19924;-78
2022/08/22 04:27:31;;;;;;;;;;;;;;;14.49;100.00;101706.09;5030892;28;19925;-79
2022/08/22 04:30:00;;;;;;;;;;;;;;;14.52;100.00;101703.31;5003958;28;19931;-79
2022/08/22 04:32:25;;;;;;;;;;;;;;;14.52;100.00;101705.97;5037870;28;19925;-80
2022/08/22 04:35:00;;;;;;;;;;;;;;;14.53;100.00;101709.47;5038719;28;19975;-79
2022/08/22 04:37:32;;;;;;;;;;;;;;;14.51;100.00;101714.03;5035667;28;20328;-80
2022/08/22 04:40:33;;;;;;;;;;;;;;;14.47;100.00;101707.09;5041230;28;20299;-80
2022/08/22 04:43:10;;;;;;;;;;;;;;;14.46;100.00;101714.25;4957235;28;20025;-81
2022/08/22 04:45:41;;;;;;;;;;;;;;;14.44;100.00;101710.78;4996145;28;19979;-80
2022/08/22 04:48:18;;;;;;;;;;;;;;;14.46;100.00;101711.59;5019193;28;19971;-80
2022/08/22 04:50:54;;;;;;;;;;;;;;;14.48;100.00;101717.69;5039438;28;20437;-79
2022/08/22 04:53:38;;;;;;;;;;;;;;;14.46;100.00;101718.72;5035572;28;20422;-80
2022/08/22 04:56:10;;;;;;;;;;;;;;;14.45;100.00;101717.88;5039845;28;19925;-80
2022/08/22 04:58:45;;;;;;;;;;;;;;;14.46;100.00;101721.38;5024403;28;19920;-80
2022/08/22 05:01:15;;;;;;;;;;;;;;;14.44;100.00;101732.09;5038767;28;19921;-81
2022/08/22 05:04:01;;;;;;;;;;;;;;;14.44;100.00;101725.91;5003875;28;20663;-79
2022/08/22 05:06:27;;;;;;;;;;;;;;;14.42;100.00;101733.97;5021546;28;19924;-78
2022/08/22 05:08:53;;;;;;;;;;;;;;;14.40;100.00;101734.03;5004323;28;20030;-79
2022/08/22 05:11:19;;;;;;;;;;;;;;;14.38;100.00;101737.72;5021977;28;19925;-79
2022/08/22 05:13:46;;;;;;;;;;;;;;;14.38;100.00;101732.38;5021919;28;20383;-79
2022/08/22 05:16:13;;;;;;;;;;;;;;;14.37;100.00;101736.88;5001527;28;19924;-79
2022/08/22 05:18:41;;;;;;;;;;;;;;;14.37;100.00;101730.66;5020697;28;19965;-79
2022/08/22 05:21:07;;;;;;;;;;;;;;;14.40;100.00;101746.50;5003753;28;19921;-78
2022/08/22 05:23:41;;;;;;;;;;;;;;;14.44;100.00;101745.41;5020615;28;19925;-78
2022/08/22 05:26:07;;;;;;;;;;;;;;;14.44;100.00;101742.75;5020893;28;19975;-79
2022/08/22 05:29:08;;;;;;;;;;;;;;;14.47;100.00;101749.75;5019061;28;20392;-79
2022/08/22 05:31:34;;;;;;;;;;;;;;;14.50;100.00;101742.47;4996250;28;20052;-78
2022/08/22 05:34:03;;;;;;;;;;;;;;;14.48;100.00;101740.81;4991916;28;19971;-78
2022/08/22 05:36:34;;;;;;;;;;;;;;;14.43;100.00;101743.69;5020570;28;20315;-79
2022/08/22 05:39:01;;;;;;;;;;;;;;;14.42;100.00;101741.13;4998209;28;19972;-79
2022/08/22 05:41:28;;;;;;;;;;;;;;;14.42;100.00;101746.44;5019734;28;19924;-78
2022/08/22 05:43:53;;;;;;;;;;;;;;;14.40;100.00;101751.84;4985152;28;19979;-79
2022/08/22 05:46:24;;;;;;;;;;;;;;;14.41;100.00;101758.91;5019806;28;20304;-78
2022/08/22 05:48:57;;;;;;;;;;;;;;;14.42;100.00;101757.09;5001126;28;19925;-79
2022/08/22 05:51:26;;;;;;;;;;;;;;;14.45;100.00;101752.50;5015888;28;19968;-79
2022/08/22 05:53:55;;;;;;;;;;;;;;;14.49;100.00;101754.06;5001601;28;19925;-79
2022/08/22 05:56:23;;;;;;;;;;;;;;;14.54;100.00;101751.16;5005973;28;19930;-80
2022/08/22 05:59:01;;;;;;;;;;;;;;;14.59;100.00;101758.97;4998137;28;19925;-79
2022/08/22 06:01:36;;;;;;;;;;;;;;;14.59;100.00;101757.16;5009292;28;20598;-79
2022/08/22 06:04:05;;;;;;;;;;;;;;;14.62;100.00;101758.81;5013336;28;20399;-79
2022/08/22 06:06:31;;;;;;;;;;;;;;;14.64;100.00;101755.13;5033327;28;19925;-85
2022/08/22 06:09:00;;;;;;;;;;;;;;;14.71;100.00;101760.16;5020789;28;19921;-83
2022/08/22 06:11:34;;;;;;;;;;;;;;;14.77;100.00;101754.56;5032642;28;19920;-84
2022/08/22 06:14:05;;;;;;;;;;;;;;;14.86;100.00;101762.13;5026307;28;19928;-84
2022/08/22 06:16:40;;;;;;;;;;;;;;;14.94;100.00;101756.41;5039330;28;19931;-85
2022/08/22 06:19:06;;;;;;;;;;;;;;;15.03;100.00;101765.75;5024281;28;20007;-85
2022/08/22 06:21:36;;;;;;;;;;;;;;;15.08;100.00;101769.03;5035827;28;19925;-84
2022/08/22 06:24:02;;;;;;;;;;;;;;;15.15;100.00;101774.94;5020655;28;20304;-84
2022/08/22 06:26:33;;;;;;;;;;;;;;;15.20;100.00;101776.44;5038663;28;19932;-82
2022/08/22 06:28:59;;;;;;;;;;;;;;;15.25;100.00;101773.53;5037383;28;20410;-84
2022/08/22 06:31:31;;;;;;;;;;;;;;;15.30;100.00;101779.50;5037989;28;19976;-84
2022/08/22 06:34:08;;;;;;;;;;;;;;;15.37;100.00;101779.19;5022252;28;19948;-85
2022/08/22 06:36:34;;;;;;;;;;;;;;;15.43;100.00;101776.22;5024674;28;19925;-83
2022/08/22 06:39:00;;;;;;;;;;;;;;;15.49;100.00;101775.91;5022609;28;19932;-78
2022/08/22 06:41:26;;;;;;;;;;;;;;;15.55;100.00;101774.72;5041973;28;19960;-78
2022/08/22 06:43:51;;;;;;;;;;;;;;;15.60;100.00;101772.66;5037911;28;19916;-78
2022/08/22 06:46:17;;;;;;;;;;;;;;;15.65;100.00;101772.44;5040750;28;20023;-83
2022/08/22 06:48:45;;;;;;;;;;;;;;;15.69;100.00;101774.84;5037508;28;19925;-78
2022/08/22 06:51:11;;;;;;;;;;;;;;;15.72;100.00;101782.72;5024270;28;19921;-78
2022/08/22 06:53:41;;;;;;;;;;;;;;;15.73;100.00;101770.22;5036074;28;19967;-78
2022/08/22 06:56:06;;;;;;;;;;;;;;;15.79;100.00;101779.72;5034121;28;20358;-78
2022/08/22 06:58:33;;;;;;;;;;;;;;;15.81;100.00;101778.69;5023830;28;20375;-79
2022/08/22 07:00:59;;;;;;;;;;;;;;;15.86;100.00;101787.31;5034238;28;20099;-79
2022/08/22 07:03:26;;;;;;;;;;;;;;;15.90;100.00;101777.31;5003363;28;19925;-78
2022/08/22 07:05:53;;;;;;;;;;;;;;;15.93;100.00;101777.22;5030221;28;19944;-79
2022/08/22 07:08:18;;;;;;;;;;;;;;;15.94;100.00;101773.59;5031811;28;19931;-78
2022/08/22 07:10:45;;;;;;;;;;;;;;;15.97;100.00;101777.91;5041394;28;19924;-78
2022/08/22 07:13:14;;;;;;;;;;;;;;;15.98;100.00;101774.28;5027803;28;20368;-79
2022/08/22 07:15:40;;;;;;;;;;;;;;;16.01;100.00;101769.66;5034685;28;20021;-79
2022/08/22 07:18:07;;;;;;;;;;;;;;;16.09;100.00;101766.56;5032204;28;20015;-79
2022/08/22 07:20:34;;;;;;;;;;;;;;;16.20;100.00;101770.44;5033737;28;20389;-79
2022/08/22 07:23:06;;;;;;;;;;;;;;;16.24;100.00;101770.19;5039278;28;19971;-79
2022/08/22 07:25:33;;;;;;;;;;;;;;;16.33;100.00;101770.66;5037851;28;20494;-79
2022/08/22 07:28:03;;;;;;;;;;;;;;;16.40;100.00;101762.19;5029247;28;20016;-78
2022/08/22 07:30:48;;;;;;;;;;;;;;;16.56;100.00;101759.53;5014341;28;19925;-79
2022/08/22 07:33:19;;;;;;;;;;;;;;;16.72;100.00;101755.13;5037144;28;20375;-79
2022/08/22 07:35:45;;;;;;;;;;;;;;;16.81;100.00;101758.16;5038856;28;19931;-81
2022/08/22 07:38:28;;;;;;;;;;;;;;;17.00;100.00;101753.53;5020606;28;19921;-81
2022/08/22 07:41:12;;;;;;;;;;;;;;;17.19;100.00;101756.88;5017035;28;19925;-81
2022/08/22 07:43:46;;;;;;;;;;;;;;;17.38;100.00;101751.28;5040223;28;20303;-81
2022/08/22 07:46:14;;;;;;;;;;;;;;;17.57;100.00;101762.69;5006558;28;19932;-80
2022/08/22 07:48:42;;;;;;;;;;;;;;;17.75;100.00;101756.22;5024231;28;19968;-80
2022/08/22 07:51:14;;;;;;;;;;;;;;;17.93;100.00;101750.69;5040998;28;19943;-79
2022/08/22 07:53:47;;;;;;;;;;;;;;;18.09;100.00;101755.94;5042034;28;20391;-80
2022/08/22 07:56:33;;;;;;;;;;;;;;;18.28;100.00;101760.16;5030865;28;19928;-79
2022/08/22 07:59:00;;;;;;;;;;;;;;;18.48;100.00;101755.34;5041251;28;19928;-81
2022/08/22 08:01:25;;;;;;;;;;;;;;;18.65;100.00;101752.41;5020084;28;19957;-81
2022/08/22 08:03:55;;;;;;;;;;;;;;;18.82;100.00;101753.13;5009360;28;19924;-80
2022/08/22 08:06:22;;;;;;;;;;;;;;;18.98;100.00;101756.53;5005746;28;20514;-81
2022/08/22 08:08:48;;;;;;;;;;;;;;;19.18;100.00;101764.22;4996887;28;20018;-81
2022/08/22 08:11:13;;;;;;;;;;;;;;;19.34;100.00;101764.88;5017762;28;20692;-81
2022/08/22 08:13:44;;;;;;;;;;;;;;;19.53;100.00;101769.00;5019726;28;20557;-81
2022/08/22 08:16:10;;;;;;;;;;;;;;;19.72;100.00;101771.25;4999760;28;20437;-80
2022/08/22 08:18:35;;;;;;;;;;;;;;;19.88;100.00;101773.72;5019242;28;19936;-81
2022/08/22 08:21:02;;;;;;;;;;;;;;;20.01;100.00;101767.50;5019652;28;20304;-81
2022/08/22 08:23:28;;;;;;;;;;;;;;;20.17;100.00;101761.91;5001290;28;19929;-80
2022/08/22 08:26:03;;;;;;;;;;;;;;;20.34;100.00;101766.06;4997862;28;19971;-81
2022/08/22 08:28:34;;;;;;;;;;;;;;;20.52;100.00;101760.31;5001124;28;19924;-80
2022/08/22 08:31:06;;;;;;;;;;;;;;;20.67;99.70;101758.31;5001087;28;19928;-81
2022/08/22 08:33:31;;;;;;;;;;;;;;;20.84;98.73;101757.06;5020760;28;19948;-81
2022/08/22 08:36:12;;;;;;;;;;;;;;;21.02;97.73;101758.38;5022391;28;19921;-81
2022/08/22 08:38:48;;;;;;;;;;;;;;;21.11;95.49;101755.97;5023634;28;20308;-81
2022/08/22 08:41:32;;;;;;;;;;;;;;;21.18;94.74;101751.81;5024629;28;19920;-81
2022/08/22 08:44:04;;;;;;;;;;;;;;;21.38;94.92;101753.00;5021426;28;19924;-81
2022/08/22 08:46:32;;;;;;;;;;;;;;;21.56;92.04;101749.81;5020479;28;19971;-82
2022/08/22 08:48:57;;;;;;;;;;;;;;;21.71;90.91;101750.50;5019704;28;19932;-93
2022/08/22 08:51:23;;;;;;;;;;;;;;;21.84;91.30;101745.84;5022870;28;20410;-86
2022/08/22 08:54:25;;;;;;;;;;;;;;;21.98;90.17;101744.75;5025101;28;19924;-82
2022/08/22 08:57:09;;;;;;;;;;;;;;;22.13;89.26;101735.53;4936734;28;19926;-82
2022/08/22 08:59:53;;;;;;;;;;;;;;;22.17;87.87;101742.41;5015356;28;20216;-82
2022/08/22 09:02:19;;;;;;;;;;;;;;;22.24;88.23;101739.06;5027628;28;20011;-81
2022/08/22 09:04:57;;;;;;;;;;;;;;;22.38;88.30;101734.38;5041089;28;19925;-81
2022/08/22 09:07:38;;;;;;;;;;;;;;;22.47;86.55;101727.38;5020647;28;19931;-82
2022/08/22 09:10:19;;;;;;;;;;;;;;;22.49;87.32;101728.09;5040341;28;20485;-79
2022/08/22 09:13:05;;;;;;;;;;;;;;;22.39;85.46;101725.34;5039728;28;19924;-79
2022/08/22 09:15:36;;;;;;;;;;;;;;;22.29;85.12;101725.25;5041248;28;19920;-79
2022/08/22 09:18:02;;;;;;;;;;;;;;;22.31;84.01;101723.25;5037070;28;19963;-79
2022/08/22 09:20:36;;;;;;;;;;;;;;;22.41;82.44;101733.28;5040087;28;20015;-79
2022/08/22 09:23:13;;;;;;;;;;;;;;;22.58;82.32;101727.41;5039921;28;19924;-79
2022/08/22 09:25:44;;;;;;;;;;;;;;;22.70;82.95;101722.81;5021730;28;19964;-79
2022/08/22 09:28:16;;;;;;;;;;;;;;;22.85;81.88;101717.09;5041213;28;19931;-79
2022/08/22 09:30:41;;;;;;;;;;;;;;;22.90;80.38;101718.44;5022563;28;19986;-79
2022/08/22 09:33:18;;;;;;;;;;;;;;;22.90;81.83;101718.44;5035844;28;19924;-79
2022/08/22 09:35:52;;;;;;;;;;;;;;;22.93;80.98;101723.56;5040717;28;19956;-80
2022/08/22 09:38:26;;;;;;;;;;;;;;;23.01;80.09;101725.63;5022522;28;19983;-79
2022/08/22 09:41:11;;;;;;;;;;;;;;;23.08;79.46;101725.94;5021486;28;19931;-79
2022/08/22 09:43:38;;;;;;;;;;;;;;;23.16;78.71;101722.59;5035730;28;19956;-88
2022/08/22 09:46:09;;;;;;;;;;;;;;;23.15;76.58;101719.03;5021772;28;20015;-85
2022/08/22 09:48:35;;;;;;;;;;;;;;;23.22;76.79;101721.22;5040038;28;19921;-86
2022/08/22 09:51:10;;;;;;;;;;;;;;;23.31;76.82;101717.78;5041620;28;20295;-89
2022/08/22 09:53:54;;;;;;;;;;;;;;;23.30;78.25;101719.59;5040977;28;19924;-88
2022/08/22 09:56:36;;;;;;;;;;;;;;;23.29;77.01;101714.28;5027835;28;20560;-88
2022/08/22 09:59:02;;;;;;;;;;;;;;;23.24;74.89;101717.41;5022706;28;20015;-89
2022/08/22 10:01:38;;;;;;;;;;;;;;;23.24;73.64;101714.69;5042202;28;19931;-87
2022/08/22 10:04:13;;;;;;;;;;;;;;;23.33;73.22;101718.47;5022607;28;20385;-87
2022/08/22 10:07:05;;;;;;;;;;;;;;;23.41;73.79;101709.69;5039822;28;19961;-87
2022/08/22 10:09:51;;;;;;;;;;;;;;;23.45;73.61;101706.63;5009759;28;20007;-88
2022/08/22 10:12:22;;;;;;;;;;;;;;;23.45;72.61;101709.31;5041474;28;19950;-87
2022/08/22 10:14:57;;;;;;;;;;;;;;;23.52;70.86;101703.38;5022489;28;20218;-86
2022/08/22 10:17:28;;;;;;;;;;;;;;;23.45;71.59;101701.22;5038830;28;19929;-86
2022/08/22 10:19:57;;;;;;;;;;;;;;;23.42;69.70;101698.75;5022676;28;19931;-86
2022/08/22 10:22:38;;;;;;;;;;;;;;;23.30;70.77;101692.59;5011050;28;19924;-87
2022/08/22 10:25:03;;;;;;;;;;;;;;;23.25;69.68;101691.25;5007714;28;19928;-87
2022/08/22 10:27:41;;;;;;;;;;;;;;;23.23;70.30;101702.19;5042602;28;19925;-88
2022/08/22 10:30:09;;;;;;;;;;;;;;;23.23;69.43;101688.69;5044614;28;19975;-88
2022/08/22 10:32:37;;;;;;;;;;;;;;;23.19;69.10;101698.91;5043279;28;19924;-87
2022/08/22 10:35:35;;;;;;;;;;;;;;;23.09;70.29;101692.56;5005605;28;20299;-85
2022/08/22 10:38:13;;;;;;;;;;;;;;;22.98;69.04;101689.94;4977642;28;19960;-85
2022/08/22 10:40:40;;;;;;;;;;;;;;;22.90;69.98;101690.59;5039637;28;19927;-86
2022/08/22 10:43:12;;;;;;;;;;;;;;;22.85;69.02;101685.59;5015157;28;19932;-87
2022/08/22 10:45:41;;;;;;;;;;;;;;;22.81;69.68;101685.97;5030870;28;19925;-87
2022/08/22 10:48:06;;;;;;;;;;;;;;;22.73;71.59;101683.91;5022893;28;20027;-86
2022/08/22 10:50:33;;;;;;;;;;;;;;;22.69;70.05;101688.72;5039001;28;19925;-86
2022/08/22 10:55:48;;;;;;;;;;;;;;;22.62;69.26;101680.25;5008650;28;20040;-88
2022/08/22 10:58:15;;;;;;;;;;;;;;;22.65;69.72;101688.13;5000777;28;19925;-88
2022/08/22 11:00:48;;;;;;;;;;;;;;;22.64;69.99;101691.81;5003673;28;19924;-87
2022/08/22 11:03:26;;;;;;;;;;;;;;;22.70;69.41;101687.72;5034562;28;20412;-86
2022/08/22 11:06:03;;;;;;;;;;;;;;;22.86;69.50;101679.19;5039067;28;20010;-86
2022/08/22 11:08:28;;;;;;;;;;;;;;;22.98;69.43;101679.97;5019729;28;20489;-87
2022/08/22 11:10:57;;;;;;;;;;;;;;;23.11;69.52;101687.91;5037594;28;20019;-88
2022/08/22 11:13:24;;;;;;;;;;;;;;;23.18;68.76;101678.28;5040395;28;19920;-87
2022/08/22 11:15:55;;;;;;;;;;;;;;;23.22;70.12;101678.88;5038654;28;19964;-87
2022/08/22 11:18:24;;;;;;;;;;;;;;;23.12;68.46;101684.22;5034545;28;20110;-86
2022/08/22 11:21:00;;;;;;;;;;;;;;;23.08;68.79;101677.34;5035720;28;19931;-88
2022/08/22 11:23:25;;;;;;;;;;;;;;;23.01;69.90;101676.16;5001519;28;19924;-89
2022/08/22 11:25:55;;;;;;;;;;;;;;;22.93;68.52;101664.19;5037983;28;19932;-87
2022/08/22 11:28:25;;;;;;;;;;;;;;;22.98;67.30;101660.25;5034120;28;20363;-81
2022/08/22 11:31:21;;;;;;;;;;;;;;;23.00;67.75;101659.13;4998848;28;19927;-81
2022/08/22 11:34:02;;;;;;;;;;;;;;;23.01;68.47;101659.97;5021462;28;19932;-82
2022/08/22 11:36:54;;;;;;;;;;;;;;;23.00;67.66;101663.66;5019579;28;19948;-81
2022/08/22 11:39:23;;;;;;;;;;;;;;;22.95;68.24;101661.38;5033804;28;19925;-80
2022/08/22 11:42:24;;;;;;;;;;;;;;;23.01;66.61;101654.56;5020789;28;20407;-80
2022/08/22 11:44:51;;;;;;;;;;;;;;;23.00;65.66;101663.66;4955827;28;19929;-80
2022/08/22 11:47:17;;;;;;;;;;;;;;;22.95;66.78;101668.59;5022185;28;20314;-80
2022/08/22 11:49:49;;;;;;;;;;;;;;;22.84;66.12;101669.50;5019712;28;19928;-80
2022/08/22 11:52:23;;;;;;;;;;;;;;;22.81;66.93;101662.53;5037935;28;20407;-80
2022/08/22 11:55:00;;;;;;;;;;;;;;;22.88;67.65;101660.19;5022312;28;19932;-80
2022/08/22 11:57:37;;;;;;;;;;;;;;;23.01;67.16;101657.25;5036098;28;19931;-80
2022/08/22 12:00:17;;;;;;;;;;;;;;;23.05;67.55;101650.63;5031155;28;21362;-84
2022/08/22 12:02:43;;;;;;;;;;;;;;;23.03;67.84;101653.44;4999856;28;19921;-83
2022/08/22 12:05:15;;;;;;;;;;;;;;;22.86;67.05;101652.19;5034138;28;20022;-84
2022/08/22 12:07:44;;;;;;;;;;;;;;;22.76;68.09;101651.25;5015429;28;19931;-85
2022/08/22 12:10:13;;;;;;;;;;;;;;;22.70;67.43;101643.72;5019301;28;19921;-83
2022/08/22 12:12:47;;;;;;;;;;;;;;;22.73;68.23;101646.13;5031106;28;19932;-84
2022/08/22 12:15:21;;;;;;;;;;;;;;;22.74;68.74;101642.44;5034831;28;19920;-85
2022/08/22 12:17:47;;;;;;;;;;;;;;;22.68;67.67;101642.97;5028840;28;20011;-85
2022/08/22 12:20:24;;;;;;;;;;;;;;;22.66;67.43;101640.38;5033020;28;19943;-85
2022/08/22 12:22:50;;;;;;;;;;;;;;;22.72;67.72;101633.63;5035552;28;20008;-85
2022/08/22 12:25:34;;;;;;;;;;;;;;;22.83;67.20;101628.19;5036181;28;19921;-85
2022/08/22 12:27:59;;;;;;;;;;;;;;;22.82;67.42;101639.94;5034158;28;20338;-85
2022/08/22 12:30:43;;;;;;;;;;;;;;;22.81;66.94;101638.25;5040842;28;19920;-86
2022/08/22 12:33:09;;;;;;;;;;;;;;;22.77;67.17;101636.81;5036137;28;20291;-85
2022/08/22 12:36:13;;;;;;;;;;;;;;;22.80;67.79;101625.72;5031519;28;19925;-86
2022/08/22 12:38:43;;;;;;;;;;;;;;;22.91;67.39;101625.69;4980602;28;19926;-87
2022/08/22 12:41:31;;;;;;;;;;;;;;;22.99;67.72;101629.56;4966955;28;19921;-84
2022/08/22 12:44:01;;;;;;;;;;;;;;;23.08;67.27;101620.66;4976505;28;20098;-82
2022/08/22 12:46:33;;;;;;;;;;;;;;;23.19;67.75;101622.41;4971404;28;20482;-91
2022/08/22 12:49:13;;;;;;;;;;;;;;;23.25;67.47;101612.94;4999248;28;20431;-79
2022/08/22 12:51:44;;;;;;;;;;;;;;;23.33;66.82;101613.97;4997916;28;19921;-79
2022/08/22 12:54:22;;;;;;;;;;;;;;;23.35;65.51;101613.84;5000493;28;20438;-80
2022/08/22 12:56:47;;;;;;;;;;;;;;;23.38;66.91;101612.72;4998278;28;19921;-83
2022/08/22 12:59:29;;;;;;;;;;;;;;;23.50;68.62;101616.19;4999921;28;19964;-84
2022/08/22 13:01:55;;;;;;;;;;;;;;;23.54;67.59;101613.06;4981953;28;19931;-84
2022/08/22 13:04:30;;;;;;;;;;;;;;;23.53;66.88;101618.63;5022878;28;19928;-84